Terminal Aerodrome Forecast
Issued by NWS

Home | Current Version | Previous Version | Text Only | Print | Product List | Glossary On
Versions: 1 2 3 4 5 6 7 8 9 10 11 12 13 14 15 16 17
575
FTAK31 PAJN 240758 AAA
TAFAGY
TAF AMD
PAGY 240758Z 2408/2506 21015G22KT P6SM VCSH BKN070
     FM242100 21008KT P6SM SCT100
     FM250000 03005KT P6SM SCT100
      AMD LTD TO CLD VIS AND WIND=

USA.gov is the U.S. government's official web portal to all federal, state and local government web resources and services.